Catàleg de serveis del Meteocat
Campanya meteocatpedra

Dades de l'estació automàtica Batea

?
?
Resum diari 22:00 TU
Dades diàries de l'estació meteorològica
Temperatura mitjana 13.9 °C
Temperatura màxima 18.1 °C 13:12 TU
Temperatura mínima 10.7 °C 5:06 TU
Humitat relativa mitjana 64%
Precipitació acumulada 0.0 mm
Ratxa màxima del vent (2 m) 48.6 km/h - 159º 17:47 TU
Irradiació solar global 11.5 MJ/m2

El tram horari està expressat en Temps Universal (TU). Cal sumar una hora en horari d'hivern i dues en horari d'estiu per passar a l'hora oficial.

Batea

Metadades estació meteorol´gica
Municipi Batea
Comarca Terra Alta
Altitud 382 m
Data alta 23.12.1999
Estat actual Operativa
Dades de període
Període
TU
TM
°C
TX
°C
TN
°C
HRM
%
PPT
mm
VVM (2 m)
km/h
DVM (2 m)
graus
VVX (2 m)
km/h
RS
W/m2
00:00 - 00:30 12.3 12.3 12.1 82 0.0 9.7 141 19.8 0
00:30 - 01:00 12.2 12.3 12.2 84 0.0 7.6 144 18.7 0
01:00 - 01:30 12.0 12.2 11.8 87 0.0 8.3 139 18.0 0
01:30 - 02:00 11.8 11.9 11.8 88 0.0 8.6 134 18.0 0
02:00 - 02:30 11.8 11.9 11.7 86 0.0 10.1 135 22.0 0
02:30 - 03:00 11.6 11.7 11.5 82 0.0 8.3 126 19.4 0
03:00 - 03:30 11.6 11.6 11.5 80 0.0 8.3 111 17.3 0
03:30 - 04:00 11.5 11.6 11.3 80 0.0 7.9 119 18.0 0
04:00 - 04:30 11.3 11.4 11.2 82 0.0 5.8 135 15.1 0
04:30 - 05:00 11.0 11.2 10.8 84 0.0 2.9 118 7.9 0
05:00 - 05:30 10.9 11.1 10.7 84 0.0 4.0 98 16.6 2
05:30 - 06:00 11.1 11.2 10.9 81 0.0 3.2 50 10.1 15
06:00 - 06:30 11.3 11.4 11.2 79 0.0 13.3 138 27.7 24
06:30 - 07:00 11.4 11.4 11.3 79 0.0 11.2 140 26.6 36
07:00 - 07:30 11.3 11.4 11.3 79 0.0 4.7 105 12.2 29
07:30 - 08:00 11.2 11.3 11.1 81 0.0 4.3 139 11.2 50
08:00 - 08:30 11.5 11.6 11.3 78 0.0 4.7 62 14.4 89
08:30 - 09:00 12.0 12.4 11.6 72 0.0 5.4 86 21.2 155
09:00 - 09:30 12.6 12.9 12.4 66 0.0 7.2 73 22.0 216
09:30 - 10:00 13.4 13.9 12.9 61 0.0 7.2 87 22.0 239
10:00 - 10:30 14.3 15.3 13.8 56 0.0 8.6 106 25.2 313
10:30 - 11:00 15.5 15.9 15.2 49 0.0 9.7 106 24.5 362
11:00 - 11:30 15.9 16.2 15.8 47 0.0 10.1 102 27.0 333
11:30 - 12:00 16.1 16.3 16.1 47 0.0 15.5 113 34.2 364
12:00 - 12:30 16.3 16.7 16.0 47 0.0 17.6 115 42.1 437
12:30 - 13:00 17.5 17.9 16.6 44 0.0 20.9 118 45.4 712
13:00 - 13:30 17.7 18.1 17.5 43 0.0 21.2 120 41.0 566
13:30 - 14:00 17.7 18.1 17.4 42 0.0 22.0 121 47.2 511
14:00 - 14:30 17.5 17.7 17.3 44 0.0 21.2 116 39.2 398
14:30 - 15:00 17.0 17.3 16.8 47 0.0 21.6 111 39.2 375
15:00 - 15:30 16.9 17.1 16.7 47 0.0 19.8 117 42.1 309
15:30 - 16:00 17.1 17.2 16.8 47 0.0 16.2 126 34.9 316
16:00 - 16:30 16.6 17.0 16.2 50 0.0 20.9 112 40.3 217
16:30 - 17:00 16.1 16.2 16.0 49 0.0 19.1 120 42.8 141
17:00 - 17:30 15.9 16.0 15.7 48 0.0 21.2 121 45.7 95
17:30 - 18:00 15.5 15.7 15.2 52 0.0 22.7 121 48.6 57
18:00 - 18:30 15.0 15.1 14.9 57 0.0 22.3 116 42.1 21
18:30 - 19:00 14.7 14.9 14.3 52 0.0 20.2 115 40.7 2
19:00 - 19:30 14.0 14.3 13.9 54 0.0 12.6 123 27.7 0
19:30 - 20:00 13.9 14.0 13.8 57 0.0 17.6 119 41.4 0
20:00 - 20:30 13.7 13.9 13.6 58 0.0 15.5 121 33.8 0
20:30 - 21:00 14.0 14.1 13.9 57 0.0 13.0 123 31.7 0
21:00 - 21:30 14.1 14.2 14.0 59 0.0 11.5 125 27.0 0
21:30 - 22:00 14.3 14.5 14.1 58 0.0 12.6 118 26.6 0
22:00 - 22:30 14.5 14.7 13.9 56 0.0 13.7 121 30.6 0

Les dades en taronja només han passat un control de qualitat automàtic. Resta pendent la seva validació definitiva.